Time;durP1;ratioP1;P1;durP2;ratioP2;P2;SDS_P1;SDS_P2;PMS_P1;PMS_P2;Temp;Humidity;BMP_temperature;BMP_pressure;BME280_temperature;BME280_humidity;BME280_pressure;Samples;Min_cycle;Max_cycle;Signal;HPM_P1;HPM_P2
2023/06/26 00:01:33;;;;;;;6.53;4.15;;;;;;;;;;5032157;28;20222;-80
2023/06/26 00:04:00;;;;;;;4.55;4.10;;;;;;;;;;5031652;28;20244;-80
2023/06/26 00:06:27;;;;;;;4.47;4.07;;;;;;;;;;5032104;28;20206;-80
2023/06/26 00:08:55;;;;;;;5.18;4.05;;;;;;;;;;5031621;28;20231;-80
2023/06/26 00:11:22;;;;;;;4.45;4.05;;;;;;;;;;5031921;28;20202;-80
2023/06/26 00:13:49;;;;;;;4.30;3.90;;;;;;;;;;5031271;28;20720;-80
2023/06/26 00:16:18;;;;;;;4.10;3.70;;;;;;;;;;5031696;28;20211;-80
2023/06/26 00:18:45;;;;;;;5.10;4.30;;;;;;;;;;5031476;28;20230;-80
2023/06/26 00:21:12;;;;;;;4.40;4.00;;;;;;;;;;5031683;28;20665;-80
2023/06/26 00:23:39;;;;;;;4.50;4.10;;;;;;;;;;5031185;28;20621;-80
2023/06/26 00:26:06;;;;;;;4.70;4.22;;;;;;;;;;5031430;28;20213;-80
2023/06/26 00:28:33;;;;;;;4.88;4.32;;;;;;;;;;5031223;28;20235;-80
2023/06/26 00:31:00;;;;;;;6.45;4.25;;;;;;;;;;5031852;28;20202;-80
2023/06/26 00:33:28;;;;;;;5.45;4.30;;;;;;;;;;5031227;28;20243;-80
2023/06/26 00:35:55;;;;;;;4.93;3.88;;;;;;;;;;5031581;28;20214;-80
2023/06/26 00:38:22;;;;;;;6.72;4.20;;;;;;;;;;5030888;28;20206;-80
2023/06/26 00:40:49;;;;;;;4.85;4.35;;;;;;;;;;5031055;28;20211;-80
2023/06/26 00:43:16;;;;;;;5.25;4.60;;;;;;;;;;5031022;28;20226;-80
2023/06/26 00:45:43;;;;;;;5.05;4.55;;;;;;;;;;5031871;28;20217;-80
2023/06/26 00:48:12;;;;;;;4.60;4.10;;;;;;;;;;5030832;28;20203;-80
2023/06/26 00:50:41;;;;;;;4.60;4.20;;;;;;;;;;5031798;28;20233;-80
2023/06/26 00:53:09;;;;;;;6.15;4.03;;;;;;;;;;5030715;28;20217;-80
2023/06/26 00:55:36;;;;;;;6.50;4.22;;;;;;;;;;5031539;28;20236;-80
2023/06/26 00:58:06;;;;;;;5.07;4.53;;;;;;;;;;5031050;28;20234;-80
2023/06/26 01:00:33;;;;;;;5.70;4.53;;;;;;;;;;5029001;28;20715;-80
2023/06/26 01:03:00;;;;;;;5.22;4.72;;;;;;;;;;5030966;28;20434;-80
2023/06/26 01:05:28;;;;;;;5.40;4.25;;;;;;;;;;5026977;28;20242;-80
2023/06/26 01:07:57;;;;;;;5.20;4.30;;;;;;;;;;5024219;28;20199;-80
2023/06/26 01:10:24;;;;;;;4.25;3.80;;;;;;;;;;5010843;28;20235;-80
2023/06/26 01:12:51;;;;;;;3.90;3.58;;;;;;;;;;5011588;28;20204;-80
2023/06/26 01:15:18;;;;;;;4.80;4.30;;;;;;;;;;5010863;28;20262;-80
2023/06/26 01:17:47;;;;;;;4.95;4.03;;;;;;;;;;5011388;28;20222;-80
2023/06/26 01:20:15;;;;;;;4.72;4.00;;;;;;;;;;5010902;28;20269;-80
2023/06/26 01:22:46;;;;;;;4.70;4.22;;;;;;;;;;5011697;28;20259;-80
2023/06/26 01:25:19;;;;;;;5.82;4.18;;;;;;;;;;5025650;28;20238;-80
2023/06/26 01:27:50;;;;;;;4.35;3.90;;;;;;;;;;5031170;28;20194;-80
2023/06/26 01:30:17;;;;;;;5.03;4.38;;;;;;;;;;5030608;28;20751;-80
2023/06/26 01:32:45;;;;;;;5.43;4.15;;;;;;;;;;5031366;28;20226;-80
2023/06/26 01:35:12;;;;;;;4.32;3.65;;;;;;;;;;5030390;28;20743;-80
2023/06/26 01:37:39;;;;;;;4.80;4.15;;;;;;;;;;5030716;28;20233;-80
2023/06/26 01:40:07;;;;;;;4.70;4.25;;;;;;;;;;5030426;28;20230;-80
2023/06/26 01:42:34;;;;;;;4.97;4.47;;;;;;;;;;5030798;28;20235;-80
2023/06/26 01:45:04;;;;;;;5.80;4.05;;;;;;;;;;5030418;28;20250;-81
2023/06/26 01:47:34;;;;;;;5.25;3.97;;;;;;;;;;5030634;28;20218;-81
2023/06/26 01:50:04;;;;;;;4.60;4.20;;;;;;;;;;5030541;28;20346;-81
2023/06/26 01:52:34;;;;;;;5.10;4.38;;;;;;;;;;5034906;28;20202;-80
2023/06/26 01:55:04;;;;;;;5.40;4.00;;;;;;;;;;5033965;28;20249;-81
2023/06/26 01:57:32;;;;;;;5.35;4.63;;;;;;;;;;5034448;28;20214;-80
2023/06/26 02:00:00;;;;;;;6.13;4.78;;;;;;;;;;5034087;28;20253;-80
2023/06/26 02:02:30;;;;;;;6.88;4.72;;;;;;;;;;5034622;28;20234;-80
2023/06/26 02:04:57;;;;;;;4.55;4.15;;;;;;;;;;5033778;28;20724;-80
2023/06/26 02:07:24;;;;;;;5.20;4.68;;;;;;;;;;5033964;28;20206;-80
2023/06/26 02:09:51;;;;;;;5.65;4.40;;;;;;;;;;5033735;28;20234;-80
2023/06/26 02:12:18;;;;;;;5.63;3.83;;;;;;;;;;5034248;28;20202;-81
2023/06/26 02:14:45;;;;;;;7.40;4.80;;;;;;;;;;5033836;28;20264;-81
2023/06/26 02:17:12;;;;;;;5.40;4.07;;;;;;;;;;5033970;28;20206;-80
2023/06/26 02:19:47;;;;;;;4.35;3.95;;;;;;;;;;5033794;28;20588;-80
2023/06/26 02:22:14;;;;;;;5.30;4.80;;;;;;;;;;5034050;28;20222;-80
2023/06/26 02:24:42;;;;;;;5.95;4.70;;;;;;;;;;5033506;28;20251;-80
2023/06/26 02:27:09;;;;;;;4.93;4.43;;;;;;;;;;5033729;28;20214;-80
2023/06/26 02:29:36;;;;;;;5.13;4.07;;;;;;;;;;5033487;28;20587;-80
2023/06/26 02:32:03;;;;;;;4.88;4.35;;;;;;;;;;5033883;28;20585;-80
2023/06/26 02:34:30;;;;;;;4.93;4.43;;;;;;;;;;5033358;28;20269;-80
2023/06/26 02:37:00;;;;;;;5.93;4.18;;;;;;;;;;5033585;28;20206;-81
2023/06/26 02:39:27;;;;;;;6.00;4.70;;;;;;;;;;5033224;28;20242;-80
2023/06/26 02:41:54;;;;;;;5.22;4.72;;;;;;;;;;5033654;28;20206;-80
2023/06/26 02:44:21;;;;;;;4.60;4.00;;;;;;;;;;5033103;28;20247;-80
2023/06/26 02:46:48;;;;;;;8.30;4.30;;;;;;;;;;5033300;28;20611;-80
2023/06/26 02:49:15;;;;;;;5.15;4.28;;;;;;;;;;5033095;28;20237;-80
2023/06/26 02:51:42;;;;;;;5.23;4.37;;;;;;;;;;5033516;28;20669;-81
2023/06/26 02:54:10;;;;;;;6.63;4.67;;;;;;;;;;5032745;28;20245;-80
2023/06/26 02:56:37;;;;;;;5.20;4.70;;;;;;;;;;5033962;28;20206;-80
2023/06/26 02:59:05;;;;;;;5.63;4.70;;;;;;;;;;5032924;28;20341;-81
2023/06/26 03:01:32;;;;;;;5.03;4.53;;;;;;;;;;5033160;28;20203;-80
2023/06/26 03:04:00;;;;;;;5.35;4.30;;;;;;;;;;5031980;28;20271;-80
2023/06/26 03:06:27;;;;;;;5.30;4.80;;;;;;;;;;5033061;28;20297;-81
2023/06/26 03:08:55;;;;;;;8.20;4.60;;;;;;;;;;5032864;28;20242;-81
2023/06/26 03:11:23;;;;;;;7.53;4.67;;;;;;;;;;5033119;28;20202;-81
2023/06/26 03:13:50;;;;;;;5.60;4.78;;;;;;;;;;5032441;28;20234;-80
2023/06/26 03:16:17;;;;;;;7.00;4.63;;;;;;;;;;5032763;28;20214;-80
2023/06/26 03:18:44;;;;;;;7.73;4.70;;;;;;;;;;5032511;28;20237;-80
2023/06/26 03:21:11;;;;;;;6.13;4.85;;;;;;;;;;5032823;28;20211;-81
2023/06/26 03:23:38;;;;;;;5.37;4.57;;;;;;;;;;5032275;28;20245;-80
2023/06/26 03:26:05;;;;;;;6.80;5.60;;;;;;;;;;5032821;28;20405;-80
2023/06/26 03:28:34;;;;;;;5.23;4.73;;;;;;;;;;5032192;28;20230;-80
2023/06/26 03:31:01;;;;;;;6.57;5.40;;;;;;;;;;5033104;28;20207;-80
2023/06/26 03:33:28;;;;;;;5.30;4.60;;;;;;;;;;5032390;28;20246;-81
2023/06/26 03:35:55;;;;;;;4.63;4.23;;;;;;;;;;5032945;28;20214;-81
2023/06/26 03:38:23;;;;;;;6.80;5.40;;;;;;;;;;5031995;28;20210;-81
2023/06/26 03:40:50;;;;;;;7.50;4.97;;;;;;;;;;5032829;28;20221;-81
2023/06/26 03:43:18;;;;;;;6.97;4.93;;;;;;;;;;5031856;28;20597;-81
2023/06/26 03:45:46;;;;;;;7.70;5.20;;;;;;;;;;5032514;28;20669;-81
2023/06/26 03:48:13;;;;;;;6.53;4.90;;;;;;;;;;5031939;28;20214;-81
2023/06/26 03:50:40;;;;;;;5.20;4.70;;;;;;;;;;5032659;28;20284;-81
2023/06/26 03:53:07;;;;;;;5.27;4.77;;;;;;;;;;5031919;28;20218;-81
2023/06/26 03:55:35;;;;;;;6.70;5.00;;;;;;;;;;5032547;28;20209;-81
2023/06/26 03:58:02;;;;;;;5.97;5.07;;;;;;;;;;5032255;28;20246;-81
2023/06/26 04:00:29;;;;;;;9.60;6.33;;;;;;;;;;5031977;28;20231;-81
2023/06/26 04:02:58;;;;;;;7.50;5.10;;;;;;;;;;5032382;28;20261;-81
2023/06/26 04:05:25;;;;;;;9.33;4.93;;;;;;;;;;5031569;28;20294;-81
2023/06/26 04:07:52;;;;;;;6.27;5.00;;;;;;;;;;5032072;28;20210;-81
2023/06/26 04:10:20;;;;;;;6.07;5.47;;;;;;;;;;5031395;28;20237;-81
2023/06/26 04:12:47;;;;;;;5.57;5.07;;;;;;;;;;5032219;28;20234;-81
2023/06/26 04:15:14;;;;;;;7.33;5.70;;;;;;;;;;5031494;28;20242;-81
2023/06/26 04:17:41;;;;;;;8.77;5.50;;;;;;;;;;5031532;28;20194;-81
2023/06/26 04:20:11;;;;;;;17.73;5.67;;;;;;;;;;5031431;28;20348;-81
2023/06/26 04:22:38;;;;;;;11.67;5.80;;;;;;;;;;5031905;28;20256;-81
2023/06/26 04:25:05;;;;;;;10.93;5.30;;;;;;;;;;5031481;28;20241;-81
2023/06/26 04:27:32;;;;;;;13.77;6.07;;;;;;;;;;5031401;28;20206;-81
2023/06/26 04:29:59;;;;;;;5.70;4.67;;;;;;;;;;5031095;28;20234;-81
2023/06/26 04:32:26;;;;;;;7.17;5.07;;;;;;;;;;5031701;28;20576;-81
2023/06/26 04:34:53;;;;;;;6.67;5.53;;;;;;;;;;5031108;28;20242;-81
2023/06/26 04:37:22;;;;;;;6.73;5.17;;;;;;;;;;5031178;28;20214;-82
2023/06/26 04:39:49;;;;;;;6.90;5.40;;;;;;;;;;5031062;28;20729;-82
2023/06/26 04:42:16;;;;;;;6.90;5.47;;;;;;;;;;5031659;28;20584;-82
2023/06/26 04:44:43;;;;;;;7.37;5.13;;;;;;;;;;5030662;28;20239;-82
2023/06/26 04:47:10;;;;;;;6.53;5.00;;;;;;;;;;5031450;28;20230;-82
2023/06/26 04:49:37;;;;;;;7.77;4.80;;;;;;;;;;5030680;28;20237;-82
2023/06/26 04:52:05;;;;;;;10.73;5.17;;;;;;;;;;5031629;28;20199;-82
2023/06/26 04:54:33;;;;;;;6.40;5.23;;;;;;;;;;5030703;28;20242;-81
2023/06/26 04:57:00;;;;;;;6.13;4.80;;;;;;;;;;5031468;28;20202;-82
2023/06/26 04:59:27;;;;;;;5.50;5.00;;;;;;;;;;5030839;28;20234;-82
2023/06/26 05:01:54;;;;;;;6.13;5.17;;;;;;;;;;5031836;28;20214;-82
2023/06/26 05:04:22;;;;;;;5.60;5.00;;;;;;;;;;5030692;28;20238;-82
2023/06/26 05:06:49;;;;;;;6.90;5.23;;;;;;;;;;5031668;28;20206;-81
2023/06/26 05:09:16;;;;;;;7.10;5.30;;;;;;;;;;5031000;28;20233;-83
2023/06/26 05:11:45;;;;;;;6.63;5.73;;;;;;;;;;5031735;28;20199;-82
2023/06/26 05:14:13;;;;;;;10.90;6.10;;;;;;;;;;5030961;28;20230;-82
2023/06/26 05:16:40;;;;;;;8.67;6.30;;;;;;;;;;5031411;28;20297;-82
2023/06/26 05:19:07;;;;;;;10.00;5.70;;;;;;;;;;5030953;28;20227;-83
2023/06/26 05:21:34;;;;;;;9.53;5.33;;;;;;;;;;5031259;28;20207;-81
2023/06/26 05:24:03;;;;;;;6.37;5.73;;;;;;;;;;5030464;28;20250;-81
2023/06/26 05:26:30;;;;;;;6.50;5.70;;;;;;;;;;5033587;28;20206;-81
2023/06/26 05:28:59;;;;;;;8.13;6.00;;;;;;;;;;5034986;28;20233;-81
2023/06/26 05:31:26;;;;;;;8.20;5.40;;;;;;;;;;5035563;28;20213;-81
2023/06/26 05:33:55;;;;;;;9.57;5.07;;;;;;;;;;5034524;28;20688;-81
2023/06/26 05:36:23;;;;;;;9.27;5.67;;;;;;;;;;5034631;28;20206;-81
2023/06/26 05:38:51;;;;;;;5.10;4.60;;;;;;;;;;5034666;28;20233;-80
2023/06/26 05:41:18;;;;;;;6.40;5.17;;;;;;;;;;5035194;28;20668;-81
2023/06/26 05:43:45;;;;;;;6.60;5.60;;;;;;;;;;5034532;28;20230;-81
2023/06/26 05:46:14;;;;;;;6.03;5.43;;;;;;;;;;5034804;28;20234;-81
2023/06/26 05:48:41;;;;;;;8.23;5.13;;;;;;;;;;5034439;28;20230;-81
2023/06/26 05:51:09;;;;;;;7.53;5.95;;;;;;;;;;5034991;28;20211;-81
2023/06/26 05:53:36;;;;;;;9.77;5.60;;;;;;;;;;5034122;28;20310;-81
2023/06/26 05:56:03;;;;;;;7.40;5.78;;;;;;;;;;5034506;28;20210;-81
2023/06/26 05:58:31;;;;;;;6.95;6.10;;;;;;;;;;5034122;28;20230;-81
2023/06/26 06:00:58;;;;;;;9.95;6.25;;;;;;;;;;5034795;28;20206;-82
2023/06/26 06:03:27;;;;;;;11.25;5.75;;;;;;;;;;5034241;28;20242;-81
2023/06/26 06:05:54;;;;;;;7.13;5.68;;;;;;;;;;5034660;28;20207;-81
2023/06/26 06:08:21;;;;;;;8.80;5.43;;;;;;;;;;5033826;28;20206;-82
2023/06/26 06:10:48;;;;;;;7.70;5.93;;;;;;;;;;5034791;28;20206;-82
2023/06/26 06:13:15;;;;;;;8.43;6.03;;;;;;;;;;5034277;28;20203;-81
2023/06/26 06:15:42;;;;;;;8.90;5.35;;;;;;;;;;5034442;28;20211;-81
2023/06/26 06:18:09;;;;;;;6.50;5.35;;;;;;;;;;5033795;28;20203;-82
2023/06/26 06:20:38;;;;;;;6.30;4.53;;;;;;;;;;5034233;28;20217;-82
2023/06/26 06:23:06;;;;;;;6.60;5.13;;;;;;;;;;5033766;28;20264;-83
2023/06/26 06:25:33;;;;;;;8.13;4.97;;;;;;;;;;5033998;28;20223;-81
2023/06/26 06:28:00;;;;;;;6.35;4.88;;;;;;;;;;5033922;28;20210;-82
2023/06/26 06:30:27;;;;;;;6.30;4.75;;;;;;;;;;5033526;28;20238;-82
2023/06/26 06:32:55;;;;;;;5.90;5.30;;;;;;;;;;5034129;28;20210;-82
2023/06/26 06:35:22;;;;;;;6.57;4.60;;;;;;;;;;5033285;28;20330;-82
2023/06/26 06:37:50;;;;;;;6.78;4.65;;;;;;;;;;5032772;28;20210;-82
2023/06/26 06:40:18;;;;;;;6.47;4.70;;;;;;;;;;5033468;28;20238;-81
2023/06/26 06:42:45;;;;;;;4.72;3.97;;;;;;;;;;5033927;28;20207;-81
2023/06/26 06:45:12;;;;;;;4.35;3.75;;;;;;;;;;5033209;28;20265;-82
2023/06/26 06:47:39;;;;;;;4.30;3.90;;;;;;;;;;5033563;28;20230;-82
2023/06/26 06:50:08;;;;;;;3.67;3.35;;;;;;;;;;5033032;28;20231;-83
2023/06/26 06:52:36;;;;;;;4.25;3.65;;;;;;;;;;5034067;28;20260;-82
2023/06/26 06:55:08;;;;;;;7.00;3.70;;;;;;;;;;5033043;28;20238;-82
2023/06/26 06:57:37;;;;;;;3.92;3.50;;;;;;;;;;5033455;28;20207;-82
2023/06/26 07:00:05;;;;;;;4.05;3.65;;;;;;;;;;5033153;28;20663;-82
2023/06/26 07:02:32;;;;;;;3.95;3.55;;;;;;;;;;5033748;28;20211;-82
2023/06/26 07:04:59;;;;;;;4.47;3.40;;;;;;;;;;5032950;28;20282;-81
2023/06/26 07:07:30;;;;;;;8.40;3.20;;;;;;;;;;5033255;28;20210;-81
2023/06/26 07:09:58;;;;;;;3.97;3.55;;;;;;;;;;5032865;28;20239;-82
2023/06/26 07:12:26;;;;;;;4.30;3.80;;;;;;;;;;5033129;28;20217;-81
2023/06/26 07:14:54;;;;;;;4.72;3.33;;;;;;;;;;5032616;28;20239;-81
2023/06/26 07:17:21;;;;;;;4.55;3.45;;;;;;;;;;5033292;28;20293;-81
2023/06/26 07:19:48;;;;;;;3.72;3.42;;;;;;;;;;5032455;28;20300;-81
2023/06/26 07:22:15;;;;;;;4.32;3.53;;;;;;;;;;5033214;28;20252;-82
2023/06/26 07:24:42;;;;;;;3.97;3.33;;;;;;;;;;5032214;28;20249;-81
2023/06/26 07:27:09;;;;;;;4.30;3.75;;;;;;;;;;5032690;28;20217;-82
2023/06/26 07:29:38;;;;;;;4.18;3.75;;;;;;;;;;5032258;28;20242;-81
2023/06/26 07:32:05;;;;;;;4.30;3.90;;;;;;;;;;5033165;28;20206;-81
2023/06/26 07:34:32;;;;;;;5.45;3.90;;;;;;;;;;5032095;28;20239;-81
2023/06/26 07:36:59;;;;;;;4.90;3.65;;;;;;;;;;5032830;28;20297;-81
2023/06/26 07:39:26;;;;;;;5.20;3.80;;;;;;;;;;5032277;28;20657;-81
2023/06/26 07:41:53;;;;;;;4.15;3.45;;;;;;;;;;5032766;28;20207;-81
2023/06/26 07:44:20;;;;;;;4.00;3.63;;;;;;;;;;5032189;28;20234;-81
2023/06/26 07:46:49;;;;;;;4.75;3.90;;;;;;;;;;5032258;28;20688;-81
2023/06/26 07:49:16;;;;;;;3.83;3.50;;;;;;;;;;5031807;28;20709;-81
2023/06/26 07:51:43;;;;;;;4.45;3.33;;;;;;;;;;5032389;28;20565;-82
2023/06/26 07:54:10;;;;;;;4.43;3.75;;;;;;;;;;5031983;28;20237;-81
2023/06/26 07:56:54;;;;;;;4.00;3.60;;;;;;;;;;5032542;28;20238;-82
2023/06/26 07:59:21;;;;;;;5.93;4.63;;;;;;;;;;5032131;28;20262;-81
2023/06/26 08:01:50;;;;;;;5.28;4.43;;;;;;;;;;5032294;28;20206;-82
2023/06/26 08:04:17;;;;;;;6.05;4.10;;;;;;;;;;5031709;28;20230;-82
2023/06/26 08:06:44;;;;;;;4.25;3.80;;;;;;;;;;5032328;28;20206;-82
2023/06/26 08:09:12;;;;;;;5.30;3.78;;;;;;;;;;5032059;28;20226;-82
2023/06/26 08:11:39;;;;;;;7.95;4.32;;;;;;;;;;5032433;28;20260;-82
2023/06/26 08:14:06;;;;;;;6.63;4.40;;;;;;;;;;5031416;28;20708;-82
2023/06/26 08:16:33;;;;;;;21.63;4.55;;;;;;;;;;5031653;28;20213;-82
2023/06/26 08:19:02;;;;;;;4.70;4.20;;;;;;;;;;5031752;28;20257;-82
2023/06/26 08:21:29;;;;;;;3.92;3.53;;;;;;;;;;5031980;28;20210;-81
2023/06/26 08:23:56;;;;;;;5.18;4.18;;;;;;;;;;5031442;28;20246;-82
2023/06/26 08:26:23;;;;;;;8.05;4.43;;;;;;;;;;5031851;28;20215;-81
2023/06/26 08:28:50;;;;;;;4.22;3.83;;;;;;;;;;5031569;28;20231;-81
2023/06/26 08:31:17;;;;;;;4.82;4.20;;;;;;;;;;5031883;28;20213;-80
2023/06/26 08:33:44;;;;;;;4.97;4.40;;;;;;;;;;5031340;28;20242;-81
2023/06/26 08:36:13;;;;;;;4.60;4.20;;;;;;;;;;5031762;28;20207;-81
2023/06/26 08:38:40;;;;;;;8.93;4.80;;;;;;;;;;5031462;28;20230;-81
2023/06/26 08:41:07;;;;;;;5.57;4.82;;;;;;;;;;5031804;28;20252;-80
2023/06/26 08:43:35;;;;;;;5.18;4.72;;;;;;;;;;5030949;28;20717;-81
2023/06/26 08:46:02;;;;;;;8.05;5.15;;;;;;;;;;5031837;28;20233;-81
2023/06/26 08:48:31;;;;;;;5.63;4.57;;;;;;;;;;5031520;28;20239;-81
2023/06/26 08:50:59;;;;;;;7.50;4.88;;;;;;;;;;5031966;28;20203;-82
2023/06/26 08:53:31;;;;;;;9.65;5.40;;;;;;;;;;5031072;28;20245;-81
2023/06/26 08:55:59;;;;;;;6.97;4.85;;;;;;;;;;5031556;28;20609;-81
2023/06/26 08:58:26;;;;;;;5.65;4.80;;;;;;;;;;5030825;28;20570;-81
2023/06/26 09:00:55;;;;;;;5.95;4.68;;;;;;;;;;5030967;28;20215;-80
2023/06/26 09:03:23;;;;;;;5.70;5.15;;;;;;;;;;5031027;28;20211;-82
2023/06/26 09:05:50;;;;;;;5.88;4.70;;;;;;;;;;5031374;28;20226;-81
2023/06/26 09:08:17;;;;;;;5.47;4.55;;;;;;;;;;5030911;28;20230;-80
2023/06/26 09:10:45;;;;;;;5.60;5.07;;;;;;;;;;5031410;28;20214;-81
2023/06/26 09:13:12;;;;;;;40.72;6.70;;;;;;;;;;5030801;28;20703;-80
2023/06/26 09:15:40;;;;;;;5.47;4.80;;;;;;;;;;5031404;28;20577;-81
2023/06/26 09:18:07;;;;;;;6.38;4.47;;;;;;;;;;5030717;28;20206;-81
2023/06/26 09:20:34;;;;;;;6.63;5.88;;;;;;;;;;5031642;28;20211;-81
2023/06/26 09:23:02;;;;;;;6.80;4.35;;;;;;;;;;5031541;28;20211;-81
2023/06/26 09:25:29;;;;;;;4.72;4.32;;;;;;;;;;5030614;28;20241;-80
2023/06/26 09:27:57;;;;;;;6.35;4.85;;;;;;;;;;5031143;28;20211;-81
2023/06/26 09:30:24;;;;;;;5.63;4.13;;;;;;;;;;5030867;28;20234;-82
2023/06/26 09:32:54;;;;;;;6.13;4.55;;;;;;;;;;5051236;22;20603;-82
2023/06/26 09:35:21;;;;;;;4.82;4.43;;;;;;;;;;5019151;28;20235;-82
2023/06/26 09:37:48;;;;;;;4.95;4.55;;;;;;;;;;5019165;28;20212;-83
2023/06/26 09:40:16;;;;;;;5.28;4.78;;;;;;;;;;5019106;28;20231;-82
2023/06/26 09:42:43;;;;;;;5.95;4.13;;;;;;;;;;5021761;28;20251;-82
2023/06/26 09:45:19;;;;;;;6.90;4.25;;;;;;;;;;5022123;28;20234;-82
2023/06/26 09:47:46;;;;;;;9.43;4.25;;;;;;;;;;5019746;28;20226;-82
2023/06/26 09:50:22;;;;;;;5.30;4.40;;;;;;;;;;5019068;28;20223;-83
2023/06/26 09:52:52;;;;;;;6.45;4.25;;;;;;;;;;5019367;28;20262;-82
2023/06/26 09:55:21;;;;;;;7.63;4.57;;;;;;;;;;5018835;28;20235;-82
2023/06/26 09:57:49;;;;;;;5.28;4.13;;;;;;;;;;5013979;28;20249;-82
2023/06/26 10:00:18;;;;;;;7.47;3.92;;;;;;;;;;5022272;28;20237;-82
2023/06/26 10:02:45;;;;;;;6.90;3.88;;;;;;;;;;5022478;28;20753;-83
2023/06/26 10:05:13;;;;;;;5.85;4.03;;;;;;;;;;5022324;28;20223;-82
2023/06/26 10:07:40;;;;;;;7.38;4.13;;;;;;;;;;5020738;28;20215;-82
2023/06/26 10:10:09;;;;;;;4.65;4.25;;;;;;;;;;5016233;28;20230;-83
2023/06/26 10:12:36;;;;;;;4.05;3.75;;;;;;;;;;5023577;28;20229;-82
2023/06/26 10:15:04;;;;;;;5.07;3.75;;;;;;;;;;5022409;28;20230;-82
2023/06/26 10:17:34;;;;;;;4.72;3.80;;;;;;;;;;5023093;28;20627;-82
2023/06/26 10:20:03;;;;;;;6.22;4.10;;;;;;;;;;5021092;28;20258;-83
2023/06/26 10:22:36;;;;;;;6.78;3.85;;;;;;;;;;5022981;28;20227;-82
2023/06/26 10:25:04;;;;;;;4.82;4.32;;;;;;;;;;5025727;28;20719;-83
2023/06/26 10:27:35;;;;;;;7.93;4.32;;;;;;;;;;5025166;28;20206;-83
2023/06/26 10:30:04;;;;;;;4.88;4.40;;;;;;;;;;5022227;28;20235;-81
2023/06/26 10:32:31;;;;;;;5.88;4.13;;;;;;;;;;5022341;28;20227;-82
2023/06/26 10:35:02;;;;;;;4.97;4.13;;;;;;;;;;5025378;28;20224;-81
2023/06/26 10:37:45;;;;;;;7.25;4.68;;;;;;;;;;5025301;28;20293;-82
2023/06/26 10:40:13;;;;;;;7.88;4.25;;;;;;;;;;5021856;28;20226;-82
2023/06/26 10:42:41;;;;;;;14.82;5.70;;;;;;;;;;5023850;28;20223;-83
2023/06/26 10:45:12;;;;;;;6.63;3.83;;;;;;;;;;5025239;28;20232;-83
2023/06/26 10:47:39;;;;;;;4.65;4.25;;;;;;;;;;5023929;28;20241;-84
2023/06/26 10:50:20;;;;;;;8.90;4.40;;;;;;;;;;5022169;28;20309;-82
2023/06/26 10:53:07;;;;;;;6.00;3.70;;;;;;;;;;5024496;28;20582;-84
2023/06/26 10:55:35;;;;;;;5.25;3.95;;;;;;;;;;5025300;28;20215;-82
2023/06/26 10:58:02;;;;;;;5.53;4.90;;;;;;;;;;5025407;28;20207;-82
2023/06/26 11:00:30;;;;;;;6.13;4.25;;;;;;;;;;5024921;28;20265;-81
2023/06/26 11:02:57;;;;;;;5.07;4.30;;;;;;;;;;5014344;28;20230;-82
2023/06/26 11:05:29;;;;;;;5.35;3.92;;;;;;;;;;5021441;28;20230;-82
2023/06/26 11:08:06;;;;;;;5.55;4.25;;;;;;;;;;5017293;28;20211;-83
2023/06/26 11:10:48;;;;;;;5.35;4.50;;;;;;;;;;5024617;28;20226;-83
2023/06/26 11:13:15;;;;;;;10.00;4.10;;;;;;;;;;5021185;28;20223;-83
2023/06/26 11:15:44;;;;;;;4.20;3.88;;;;;;;;;;5023153;28;20235;-83
2023/06/26 11:18:11;;;;;;;7.32;4.22;;;;;;;;;;5024500;28;20680;-82
2023/06/26 11:20:40;;;;;;;5.35;4.05;;;;;;;;;;5023629;28;20726;-84
2023/06/26 11:23:07;;;;;;;4.68;4.28;;;;;;;;;;5020394;28;20223;-83
2023/06/26 11:25:36;;;;;;;21.08;4.03;;;;;;;;;;5021853;28;20227;-82
2023/06/26 11:28:04;;;;;;;72.38;6.38;;;;;;;;;;5024568;28;20202;-83
2023/06/26 11:30:31;;;;;;;5.53;3.90;;;;;;;;;;5024622;28;20223;-82
2023/06/26 11:33:05;;;;;;;5.03;3.78;;;;;;;;;;5024834;28;20233;-82
2023/06/26 11:35:32;;;;;;;8.43;4.78;;;;;;;;;;5024322;28;20602;-81
2023/06/26 11:38:04;;;;;;;8.85;4.70;;;;;;;;;;5020961;28;20692;-83
2023/06/26 11:40:31;;;;;;;7.03;4.13;;;;;;;;;;5021179;28;20227;-83
2023/06/26 11:43:00;;;;;;;10.38;3.67;;;;;;;;;;5013347;28;20594;-82
2023/06/26 11:45:27;;;;;;;4.55;3.83;;;;;;;;;;5020621;28;20323;-82
2023/06/26 11:47:56;;;;;;;6.55;4.15;;;;;;;;;;5023915;28;20207;-82
2023/06/26 11:50:24;;;;;;;69.38;6.00;;;;;;;;;;5017183;28;20250;-82
2023/06/26 11:52:55;;;;;;;7.18;4.40;;;;;;;;;;5023384;28;20245;-82
2023/06/26 11:55:24;;;;;;;4.85;4.35;;;;;;;;;;5023981;28;20249;-81
2023/06/26 11:57:51;;;;;;;4.60;3.90;;;;;;;;;;5021607;28;20206;-82
2023/06/26 12:00:19;;;;;;;4.75;4.10;;;;;;;;;;5020442;28;20233;-82
2023/06/26 12:02:46;;;;;;;5.15;4.00;;;;;;;;;;5020612;28;20226;-82
2023/06/26 12:05:14;;;;;;;7.43;4.15;;;;;;;;;;5020278;28;20696;-82
2023/06/26 12:07:42;;;;;;;4.53;3.70;;;;;;;;;;5021495;28;20207;-81
2023/06/26 12:10:10;;;;;;;4.50;3.85;;;;;;;;;;5026700;28;20229;-81
2023/06/26 12:12:39;;;;;;;6.20;3.72;;;;;;;;;;5020857;28;20262;-82
2023/06/26 12:15:07;;;;;;;4.82;3.95;;;;;;;;;;5023369;28;20229;-83
2023/06/26 12:17:34;;;;;;;4.70;3.53;;;;;;;;;;5023387;28;20210;-82
2023/06/26 12:20:04;;;;;;;47.97;5.70;;;;;;;;;;5019899;28;20715;-83
2023/06/26 12:22:35;;;;;;;4.35;3.60;;;;;;;;;;5020714;28;20577;-82
2023/06/26 12:25:02;;;;;;;17.92;5.20;;;;;;;;;;5019725;28;20230;-83
2023/06/26 12:27:30;;;;;;;18.83;4.07;;;;;;;;;;5020024;28;20695;-82
2023/06/26 12:29:59;;;;;;;15.38;4.13;;;;;;;;;;5022822;28;20754;-83
2023/06/26 12:32:26;;;;;;;4.85;3.90;;;;;;;;;;5023496;28;20240;-81
2023/06/26 12:34:53;;;;;;;5.45;4.28;;;;;;;;;;5019542;28;20237;-82
2023/06/26 12:37:21;;;;;;;6.32;4.05;;;;;;;;;;5020174;28;20199;-82
2023/06/26 12:39:48;;;;;;;6.75;4.00;;;;;;;;;;5021342;28;20231;-82
2023/06/26 12:42:16;;;;;;;10.73;4.38;;;;;;;;;;5023339;28;20218;-83
2023/06/26 12:44:43;;;;;;;5.88;4.53;;;;;;;;;;5021736;28;20257;-82
2023/06/26 12:47:13;;;;;;;5.38;4.30;;;;;;;;;;5019855;28;20608;-83
2023/06/26 12:49:41;;;;;;;17.20;4.78;;;;;;;;;;5020098;28;20647;-82
2023/06/26 12:52:08;;;;;;;38.25;6.13;;;;;;;;;;5023283;28;20596;-83
2023/06/26 12:54:36;;;;;;;21.08;5.30;;;;;;;;;;5023093;28;20230;-82
2023/06/26 12:57:03;;;;;;;8.93;5.20;;;;;;;;;;5011945;28;20207;-83
2023/06/26 12:59:30;;;;;;;9.05;5.25;;;;;;;;;;5019462;28;20613;-82
2023/06/26 13:01:58;;;;;;;7.18;4.47;;;;;;;;;;5022708;28;20260;-83
2023/06/26 13:04:26;;;;;;;4.90;4.50;;;;;;;;;;5023038;28;20226;-83
2023/06/26 13:06:54;;;;;;;7.68;4.38;;;;;;;;;;5020684;28;20219;-82
2023/06/26 13:09:21;;;;;;;5.55;4.63;;;;;;;;;;5019620;28;20231;-84
2023/06/26 13:11:48;;;;;;;5.30;4.30;;;;;;;;;;5019782;28;20233;-83
2023/06/26 13:14:15;;;;;;;17.20;5.55;;;;;;;;;;5019466;28;20231;-83
2023/06/26 13:16:43;;;;;;;10.30;6.25;;;;;;;;;;5020323;28;20207;-83
2023/06/26 13:19:10;;;;;;;5.45;4.95;;;;;;;;;;5022901;28;20230;-82
2023/06/26 13:21:38;;;;;;;6.15;5.55;;;;;;;;;;5031462;28;20716;-83
2023/06/26 13:24:06;;;;;;;6.88;5.30;;;;;;;;;;5031113;28;20703;-82
2023/06/26 13:26:33;;;;;;;6.90;5.63;;;;;;;;;;5031159;28;20229;-83
2023/06/26 13:29:00;;;;;;;5.68;5.18;;;;;;;;;;5030730;28;20734;-83
2023/06/26 13:31:27;;;;;;;7.93;4.63;;;;;;;;;;5031042;28;20652;-83
2023/06/26 13:33:54;;;;;;;7.28;4.88;;;;;;;;;;5030770;28;20227;-82
2023/06/26 13:36:21;;;;;;;9.18;4.47;;;;;;;;;;5031216;28;20211;-83
2023/06/26 13:38:55;;;;;;;5.38;4.22;;;;;;;;;;5030714;28;20260;-82
2023/06/26 13:41:22;;;;;;;8.73;4.63;;;;;;;;;;5031418;28;20206;-82
2023/06/26 13:43:49;;;;;;;4.88;3.97;;;;;;;;;;5030959;28;20245;-83
2023/06/26 13:46:17;;;;;;;8.60;4.00;;;;;;;;;;5031457;28;20230;-83
2023/06/26 13:48:44;;;;;;;5.20;4.15;;;;;;;;;;5034559;28;20230;-82
2023/06/26 13:51:11;;;;;;;6.15;4.97;;;;;;;;;;5035083;28;20214;-82
2023/06/26 13:53:38;;;;;;;5.00;3.75;;;;;;;;;;5034775;28;20257;-82
2023/06/26 13:56:07;;;;;;;8.82;4.30;;;;;;;;;;5034789;28;20555;-84
2023/06/26 13:58:36;;;;;;;14.70;4.88;;;;;;;;;;5034789;28;20226;-83
2023/06/26 14:01:03;;;;;;;16.27;4.82;;;;;;;;;;5034898;28;20207;-82
2023/06/26 14:03:31;;;;;;;5.82;3.90;;;;;;;;;;5034504;28;20234;-83
2023/06/26 14:05:58;;;;;;;6.65;3.72;;;;;;;;;;5034579;28;20223;-83
2023/06/26 14:08:25;;;;;;;5.32;3.60;;;;;;;;;;5034213;28;20250;-82
2023/06/26 14:10:52;;;;;;;5.85;4.25;;;;;;;;;;5034629;28;20560;-83
2023/06/26 14:13:20;;;;;;;9.38;4.28;;;;;;;;;;5034338;28;20867;-83
2023/06/26 14:15:47;;;;;;;7.78;3.72;;;;;;;;;;5034427;28;20198;-83
2023/06/26 14:18:14;;;;;;;4.13;3.70;;;;;;;;;;5034088;28;20206;-83
2023/06/26 14:20:41;;;;;;;5.45;3.95;;;;;;;;;;5034680;28;20206;-83
2023/06/26 14:23:08;;;;;;;36.88;5.35;;;;;;;;;;5034234;28;20233;-84
2023/06/26 14:25:36;;;;;;;3.78;3.47;;;;;;;;;;5034804;28;20210;-82
2023/06/26 14:28:03;;;;;;;4.32;3.50;;;;;;;;;;5034541;28;20238;-83
2023/06/26 14:30:31;;;;;;;6.97;3.72;;;;;;;;;;5034132;28;20615;-82
2023/06/26 14:32:58;;;;;;;4.55;3.80;;;;;;;;;;5034132;28;20238;-83
2023/06/26 14:35:25;;;;;;;7.00;3.22;;;;;;;;;;5033996;28;20230;-82
2023/06/26 14:37:52;;;;;;;5.75;3.80;;;;;;;;;;5034177;28;20207;-83
2023/06/26 14:40:20;;;;;;;5.22;3.05;;;;;;;;;;5033770;28;20242;-83
2023/06/26 14:42:47;;;;;;;6.05;2.90;;;;;;;;;;5034377;28;20226;-83
2023/06/26 14:45:14;;;;;;;3.78;3.38;;;;;;;;;;5033577;28;20235;-83
2023/06/26 14:47:42;;;;;;;71.93;5.70;;;;;;;;;;5033651;28;20237;-83